sensor_id;sensor_type;location;lat;lon;timestamp;P1;durP1;ratioP1;P2;durP2;ratioP2
61572;SDS011;47465;43.094;12.434;2022-10-17T00:02:07;27.25;;;11.57;;
61572;SDS011;47465;43.094;12.434;2022-10-17T00:04:33;22.65;;;11.60;;
61572;SDS011;47465;43.094;12.434;2022-10-17T00:06:59;21.95;;;10.68;;
61572;SDS011;47465;43.094;12.434;2022-10-17T00:09:24;24.70;;;11.52;;
61572;SDS011;47465;43.094;12.434;2022-10-17T00:11:50;25.27;;;12.63;;
61572;SDS011;47465;43.094;12.434;2022-10-17T00:14:16;30.45;;;13.00;;
61572;SDS011;47465;43.094;12.434;2022-10-17T00:16:41;26.65;;;12.80;;
61572;SDS011;47465;43.094;12.434;2022-10-17T00:19:09;24.92;;;12.68;;
61572;SDS011;47465;43.094;12.434;2022-10-17T00:21:34;26.13;;;11.70;;
61572;SDS011;47465;43.094;12.434;2022-10-17T00:24:00;26.92;;;13.27;;
61572;SDS011;47465;43.094;12.434;2022-10-17T00:26:26;24.35;;;11.43;;
61572;SDS011;47465;43.094;12.434;2022-10-17T00:28:53;22.85;;;10.23;;
61572;SDS011;47465;43.094;12.434;2022-10-17T00:31:20;25.33;;;11.07;;
61572;SDS011;47465;43.094;12.434;2022-10-17T00:33:47;25.75;;;11.82;;
61572;SDS011;47465;43.094;12.434;2022-10-17T00:36:15;22.73;;;10.88;;
61572;SDS011;47465;43.094;12.434;2022-10-17T00:38:44;21.60;;;10.93;;
61572;SDS011;47465;43.094;12.434;2022-10-17T00:41:12;25.20;;;12.20;;
61572;SDS011;47465;43.094;12.434;2022-10-17T00:43:48;24.58;;;10.27;;
61572;SDS011;47465;43.094;12.434;2022-10-17T00:46:19;22.95;;;11.32;;
61572;SDS011;47465;43.094;12.434;2022-10-17T00:48:46;28.08;;;11.52;;
61572;SDS011;47465;43.094;12.434;2022-10-17T00:51:15;23.23;;;10.98;;
61572;SDS011;47465;43.094;12.434;2022-10-17T00:53:43;24.23;;;11.60;;
61572;SDS011;47465;43.094;12.434;2022-10-17T00:56:09;27.58;;;11.45;;
61572;SDS011;47465;43.094;12.434;2022-10-17T00:58:36;26.55;;;12.07;;
61572;SDS011;47465;43.094;12.434;2022-10-17T01:01:02;23.85;;;11.32;;
61572;SDS011;47465;43.094;12.434;2022-10-17T01:03:28;24.73;;;10.90;;
61572;SDS011;47465;43.094;12.434;2022-10-17T01:05:53;29.25;;;11.75;;
61572;SDS011;47465;43.094;12.434;2022-10-17T01:08:21;23.80;;;11.00;;
61572;SDS011;47465;43.094;12.434;2022-10-17T01:10:48;26.92;;;11.68;;
61572;SDS011;47465;43.094;12.434;2022-10-17T01:13:23;26.48;;;12.52;;
61572;SDS011;47465;43.094;12.434;2022-10-17T01:15:57;23.63;;;11.82;;
61572;SDS011;47465;43.094;12.434;2022-10-17T01:18:36;21.80;;;10.85;;
61572;SDS011;47465;43.094;12.434;2022-10-17T01:21:15;25.05;;;11.05;;
61572;SDS011;47465;43.094;12.434;2022-10-17T01:24:07;24.13;;;12.43;;
61572;SDS011;47465;43.094;12.434;2022-10-17T01:26:58;26.67;;;10.85;;
61572;SDS011;47465;43.094;12.434;2022-10-17T01:29:46;23.55;;;11.63;;
61572;SDS011;47465;43.094;12.434;2022-10-17T01:32:27;26.38;;;11.30;;
61572;SDS011;47465;43.094;12.434;2022-10-17T01:35:01;24.35;;;11.18;;
61572;SDS011;47465;43.094;12.434;2022-10-17T01:37:35;26.25;;;11.65;;
61572;SDS011;47465;43.094;12.434;2022-10-17T01:40:08;26.35;;;11.55;;
61572;SDS011;47465;43.094;12.434;2022-10-17T01:42:40;23.50;;;11.50;;
61572;SDS011;47465;43.094;12.434;2022-10-17T01:45:11;25.23;;;12.35;;
61572;SDS011;47465;43.094;12.434;2022-10-17T01:47:42;24.05;;;11.30;;
61572;SDS011;47465;43.094;12.434;2022-10-17T01:50:12;22.40;;;10.73;;
61572;SDS011;47465;43.094;12.434;2022-10-17T01:52:42;21.92;;;11.50;;
61572;SDS011;47465;43.094;12.434;2022-10-17T01:55:11;24.42;;;12.18;;
61572;SDS011;47465;43.094;12.434;2022-10-17T01:57:44;22.65;;;10.57;;
61572;SDS011;47465;43.094;12.434;2022-10-17T02:00:16;24.20;;;11.63;;
61572;SDS011;47465;43.094;12.434;2022-10-17T02:02:45;23.83;;;11.32;;
61572;SDS011;47465;43.094;12.434;2022-10-17T02:05:14;24.67;;;11.30;;
61572;SDS011;47465;43.094;12.434;2022-10-17T02:07:41;25.48;;;10.88;;
61572;SDS011;47465;43.094;12.434;2022-10-17T02:10:09;20.77;;;11.32;;
61572;SDS011;47465;43.094;12.434;2022-10-17T02:12:44;25.10;;;10.98;;
61572;SDS011;47465;43.094;12.434;2022-10-17T02:15:19;27.25;;;11.18;;
61572;SDS011;47465;43.094;12.434;2022-10-17T02:17:56;25.75;;;12.25;;
61572;SDS011;47465;43.094;12.434;2022-10-17T02:20:29;24.25;;;11.38;;
61572;SDS011;47465;43.094;12.434;2022-10-17T02:23:02;24.92;;;11.40;;
61572;SDS011;47465;43.094;12.434;2022-10-17T02:25:35;25.73;;;12.13;;
61572;SDS011;47465;43.094;12.434;2022-10-17T02:28:08;26.75;;;11.38;;
61572;SDS011;47465;43.094;12.434;2022-10-17T02:30:46;26.88;;;12.07;;
61572;SDS011;47465;43.094;12.434;2022-10-17T02:33:19;25.40;;;11.55;;
61572;SDS011;47465;43.094;12.434;2022-10-17T02:35:50;24.48;;;11.75;;
61572;SDS011;47465;43.094;12.434;2022-10-17T02:38:18;24.35;;;12.05;;
61572;SDS011;47465;43.094;12.434;2022-10-17T02:40:45;23.13;;;11.18;;
61572;SDS011;47465;43.094;12.434;2022-10-17T02:43:14;26.80;;;13.32;;
61572;SDS011;47465;43.094;12.434;2022-10-17T02:45:40;33.47;;;13.07;;
61572;SDS011;47465;43.094;12.434;2022-10-17T02:48:07;28.48;;;12.52;;
61572;SDS011;47465;43.094;12.434;2022-10-17T02:50:40;25.10;;;11.98;;
61572;SDS011;47465;43.094;12.434;2022-10-17T02:53:14;23.63;;;12.18;;
61572;SDS011;47465;43.094;12.434;2022-10-17T02:55:46;27.42;;;13.38;;
61572;SDS011;47465;43.094;12.434;2022-10-17T02:58:17;30.15;;;13.50;;
61572;SDS011;47465;43.094;12.434;2022-10-17T03:00:45;26.88;;;13.18;;
61572;SDS011;47465;43.094;12.434;2022-10-17T03:03:19;29.52;;;13.55;;
61572;SDS011;47465;43.094;12.434;2022-10-17T03:05:49;33.30;;;13.48;;
61572;SDS011;47465;43.094;12.434;2022-10-17T03:08:14;40.30;;;16.23;;
61572;SDS011;47465;43.094;12.434;2022-10-17T03:10:40;39.90;;;16.33;;
61572;SDS011;47465;43.094;12.434;2022-10-17T03:13:06;35.45;;;15.63;;
61572;SDS011;47465;43.094;12.434;2022-10-17T03:15:32;35.90;;;15.68;;
61572;SDS011;47465;43.094;12.434;2022-10-17T03:17:58;37.30;;;15.85;;
61572;SDS011;47465;43.094;12.434;2022-10-17T03:20:23;33.28;;;15.88;;
61572;SDS011;47465;43.094;12.434;2022-10-17T03:22:51;38.15;;;17.00;;
61572;SDS011;47465;43.094;12.434;2022-10-17T03:25:16;42.15;;;16.42;;
61572;SDS011;47465;43.094;12.434;2022-10-17T03:27:42;51.05;;;18.60;;
61572;SDS011;47465;43.094;12.434;2022-10-17T03:30:08;43.85;;;18.90;;
61572;SDS011;47465;43.094;12.434;2022-10-17T03:32:34;41.05;;;18.73;;
61572;SDS011;47465;43.094;12.434;2022-10-17T03:35:00;43.28;;;18.73;;
61572;SDS011;47465;43.094;12.434;2022-10-17T03:37:26;37.30;;;17.45;;
61572;SDS011;47465;43.094;12.434;2022-10-17T03:39:53;43.42;;;19.20;;
61572;SDS011;47465;43.094;12.434;2022-10-17T03:42:19;41.63;;;17.20;;
61572;SDS011;47465;43.094;12.434;2022-10-17T03:44:45;40.55;;;18.00;;
61572;SDS011;47465;43.094;12.434;2022-10-17T03:47:11;43.65;;;18.75;;
61572;SDS011;47465;43.094;12.434;2022-10-17T03:49:37;47.33;;;18.80;;
61572;SDS011;47465;43.094;12.434;2022-10-17T03:52:02;41.80;;;16.85;;
61572;SDS011;47465;43.094;12.434;2022-10-17T03:54:28;43.20;;;18.17;;
61572;SDS011;47465;43.094;12.434;2022-10-17T03:56:55;43.30;;;19.90;;
61572;SDS011;47465;43.094;12.434;2022-10-17T03:59:21;38.83;;;18.15;;
61572;SDS011;47465;43.094;12.434;2022-10-17T04:01:47;44.85;;;18.25;;
61572;SDS011;47465;43.094;12.434;2022-10-17T04:04:13;45.72;;;18.88;;
61572;SDS011;47465;43.094;12.434;2022-10-17T04:06:39;47.42;;;18.05;;
61572;SDS011;47465;43.094;12.434;2022-10-17T04:09:14;43.17;;;19.17;;
61572;SDS011;47465;43.094;12.434;2022-10-17T04:11:43;45.70;;;18.30;;
61572;SDS011;47465;43.094;12.434;2022-10-17T04:14:11;49.13;;;19.92;;
61572;SDS011;47465;43.094;12.434;2022-10-17T04:16:37;44.05;;;18.42;;
61572;SDS011;47465;43.094;12.434;2022-10-17T04:19:03;41.33;;;17.25;;
61572;SDS011;47465;43.094;12.434;2022-10-17T04:21:29;43.33;;;17.20;;
61572;SDS011;47465;43.094;12.434;2022-10-17T04:23:55;39.67;;;16.38;;
61572;SDS011;47465;43.094;12.434;2022-10-17T04:26:22;39.22;;;17.73;;
61572;SDS011;47465;43.094;12.434;2022-10-17T04:28:48;36.60;;;15.95;;
61572;SDS011;47465;43.094;12.434;2022-10-17T04:31:16;39.10;;;17.65;;
61572;SDS011;47465;43.094;12.434;2022-10-17T04:33:45;33.17;;;15.93;;
61572;SDS011;47465;43.094;12.434;2022-10-17T04:36:12;39.28;;;16.15;;
61572;SDS011;47465;43.094;12.434;2022-10-17T04:38:39;37.13;;;15.15;;
61572;SDS011;47465;43.094;12.434;2022-10-17T04:41:06;30.55;;;14.55;;
61572;SDS011;47465;43.094;12.434;2022-10-17T04:43:35;32.65;;;14.15;;
61572;SDS011;47465;43.094;12.434;2022-10-17T04:46:02;28.52;;;13.80;;
61572;SDS011;47465;43.094;12.434;2022-10-17T04:48:31;29.98;;;14.20;;
61572;SDS011;47465;43.094;12.434;2022-10-17T04:50:57;44.25;;;15.05;;
61572;SDS011;47465;43.094;12.434;2022-10-17T04:53:24;36.65;;;16.38;;
61572;SDS011;47465;43.094;12.434;2022-10-17T04:55:51;232.40;;;23.75;;
61572;SDS011;47465;43.094;12.434;2022-10-17T04:58:17;124.03;;;19.42;;
61572;SDS011;47465;43.094;12.434;2022-10-17T05:00:44;138.35;;;19.00;;
61572;SDS011;47465;43.094;12.434;2022-10-17T05:03:10;63.28;;;15.25;;
61572;SDS011;47465;43.094;12.434;2022-10-17T05:05:37;35.05;;;14.30;;
61572;SDS011;47465;43.094;12.434;2022-10-17T05:08:04;42.05;;;16.88;;
61572;SDS011;47465;43.094;12.434;2022-10-17T05:10:30;35.50;;;15.98;;
61572;SDS011;47465;43.094;12.434;2022-10-17T05:13:00;40.28;;;16.98;;
61572;SDS011;47465;43.094;12.434;2022-10-17T05:15:26;41.97;;;18.05;;
61572;SDS011;47465;43.094;12.434;2022-10-17T05:17:53;36.90;;;16.63;;
61572;SDS011;47465;43.094;12.434;2022-10-17T05:20:19;51.17;;;19.20;;
61572;SDS011;47465;43.094;12.434;2022-10-17T05:22:46;45.65;;;18.02;;
61572;SDS011;47465;43.094;12.434;2022-10-17T05:25:12;45.58;;;18.52;;
61572;SDS011;47465;43.094;12.434;2022-10-17T05:27:38;43.92;;;17.70;;
61572;SDS011;47465;43.094;12.434;2022-10-17T05:30:04;45.38;;;18.65;;
61572;SDS011;47465;43.094;12.434;2022-10-17T05:32:31;46.42;;;17.90;;
61572;SDS011;47465;43.094;12.434;2022-10-17T05:35:08;39.22;;;17.17;;
61572;SDS011;47465;43.094;12.434;2022-10-17T05:37:34;40.95;;;16.52;;
61572;SDS011;47465;43.094;12.434;2022-10-17T05:40:02;47.58;;;16.73;;
61572;SDS011;47465;43.094;12.434;2022-10-17T05:42:28;35.20;;;16.00;;
61572;SDS011;47465;43.094;12.434;2022-10-17T05:44:54;39.28;;;16.58;;
61572;SDS011;47465;43.094;12.434;2022-10-17T05:47:19;35.08;;;15.88;;
61572;SDS011;47465;43.094;12.434;2022-10-17T05:49:45;38.88;;;14.70;;
61572;SDS011;47465;43.094;12.434;2022-10-17T05:52:11;31.67;;;14.43;;
61572;SDS011;47465;43.094;12.434;2022-10-17T05:54:37;32.22;;;14.60;;
61572;SDS011;47465;43.094;12.434;2022-10-17T05:57:04;40.08;;;14.18;;
61572;SDS011;47465;43.094;12.434;2022-10-17T05:59:30;33.38;;;14.65;;
61572;SDS011;47465;43.094;12.434;2022-10-17T06:01:59;29.50;;;14.65;;
61572;SDS011;47465;43.094;12.434;2022-10-17T06:04:25;35.55;;;15.02;;
61572;SDS011;47465;43.094;12.434;2022-10-17T06:06:52;32.47;;;15.45;;
61572;SDS011;47465;43.094;12.434;2022-10-17T06:09:18;34.50;;;15.32;;
61572;SDS011;47465;43.094;12.434;2022-10-17T06:11:44;28.40;;;15.13;;
61572;SDS011;47465;43.094;12.434;2022-10-17T06:14:12;31.42;;;15.63;;
61572;SDS011;47465;43.094;12.434;2022-10-17T06:16:38;35.50;;;15.50;;
61572;SDS011;47465;43.094;12.434;2022-10-17T06:19:04;37.05;;;16.65;;
61572;SDS011;47465;43.094;12.434;2022-10-17T06:21:29;32.47;;;14.90;;
61572;SDS011;47465;43.094;12.434;2022-10-17T06:23:58;30.63;;;15.07;;
61572;SDS011;47465;43.094;12.434;2022-10-17T06:26:24;40.85;;;17.23;;
61572;SDS011;47465;43.094;12.434;2022-10-17T06:28:50;36.38;;;15.88;;
61572;SDS011;47465;43.094;12.434;2022-10-17T06:31:19;36.53;;;15.77;;
61572;SDS011;47465;43.094;12.434;2022-10-17T06:33:45;32.72;;;15.25;;
61572;SDS011;47465;43.094;12.434;2022-10-17T06:36:12;36.75;;;15.32;;
61572;SDS011;47465;43.094;12.434;2022-10-17T06:38:38;33.22;;;15.82;;
61572;SDS011;47465;43.094;12.434;2022-10-17T06:41:05;30.98;;;14.43;;
61572;SDS011;47465;43.094;12.434;2022-10-17T06:43:33;29.75;;;14.40;;
61572;SDS011;47465;43.094;12.434;2022-10-17T06:45:58;32.45;;;15.50;;
61572;SDS011;47465;43.094;12.434;2022-10-17T06:48:26;32.40;;;15.43;;
61572;SDS011;47465;43.094;12.434;2022-10-17T06:50:51;37.58;;;15.52;;
61572;SDS011;47465;43.094;12.434;2022-10-17T06:53:17;32.10;;;14.98;;
61572;SDS011;47465;43.094;12.434;2022-10-17T06:55:43;30.95;;;15.35;;
61572;SDS011;47465;43.094;12.434;2022-10-17T06:58:09;32.30;;;15.77;;
61572;SDS011;47465;43.094;12.434;2022-10-17T07:00:35;29.40;;;14.10;;
61572;SDS011;47465;43.094;12.434;2022-10-17T07:03:01;27.48;;;13.68;;
61572;SDS011;47465;43.094;12.434;2022-10-17T07:05:28;30.13;;;13.88;;
61572;SDS011;47465;43.094;12.434;2022-10-17T07:07:54;26.60;;;13.55;;
61572;SDS011;47465;43.094;12.434;2022-10-17T07:10:20;26.75;;;13.70;;
61572;SDS011;47465;43.094;12.434;2022-10-17T07:12:46;26.33;;;13.30;;
61572;SDS011;47465;43.094;12.434;2022-10-17T07:15:12;26.33;;;12.85;;
61572;SDS011;47465;43.094;12.434;2022-10-17T07:17:38;30.73;;;13.95;;
61572;SDS011;47465;43.094;12.434;2022-10-17T07:20:04;29.67;;;14.43;;
61572;SDS011;47465;43.094;12.434;2022-10-17T07:22:32;32.50;;;14.93;;
61572;SDS011;47465;43.094;12.434;2022-10-17T07:24:57;25.52;;;13.20;;
61572;SDS011;47465;43.094;12.434;2022-10-17T07:27:23;31.58;;;14.65;;
61572;SDS011;47465;43.094;12.434;2022-10-17T07:29:49;32.72;;;15.02;;
61572;SDS011;47465;43.094;12.434;2022-10-17T07:32:15;27.42;;;13.90;;
61572;SDS011;47465;43.094;12.434;2022-10-17T07:34:41;30.10;;;13.93;;
61572;SDS011;47465;43.094;12.434;2022-10-17T07:37:07;28.10;;;13.75;;
61572;SDS011;47465;43.094;12.434;2022-10-17T07:39:35;29.15;;;13.75;;
61572;SDS011;47465;43.094;12.434;2022-10-17T07:42:01;55.03;;;16.05;;
61572;SDS011;47465;43.094;12.434;2022-10-17T07:44:27;28.70;;;13.70;;
61572;SDS011;47465;43.094;12.434;2022-10-17T07:46:53;25.13;;;13.27;;
61572;SDS011;47465;43.094;12.434;2022-10-17T07:49:18;26.77;;;13.50;;
61572;SDS011;47465;43.094;12.434;2022-10-17T07:51:44;26.45;;;13.20;;
61572;SDS011;47465;43.094;12.434;2022-10-17T07:54:12;26.25;;;13.25;;
61572;SDS011;47465;43.094;12.434;2022-10-17T07:56:39;27.95;;;14.43;;
61572;SDS011;47465;43.094;12.434;2022-10-17T07:59:05;25.08;;;12.85;;
61572;SDS011;47465;43.094;12.434;2022-10-17T08:01:31;26.70;;;15.05;;
61572;SDS011;47465;43.094;12.434;2022-10-17T08:03:57;28.25;;;13.65;;
61572;SDS011;47465;43.094;12.434;2022-10-17T08:06:22;26.92;;;15.50;;
61572;SDS011;47465;43.094;12.434;2022-10-17T08:08:48;29.85;;;14.38;;
61572;SDS011;47465;43.094;12.434;2022-10-17T08:11:14;27.02;;;14.25;;
61572;SDS011;47465;43.094;12.434;2022-10-17T08:13:41;25.85;;;13.30;;
61572;SDS011;47465;43.094;12.434;2022-10-17T08:16:08;24.17;;;13.93;;
61572;SDS011;47465;43.094;12.434;2022-10-17T08:18:34;26.08;;;13.02;;
61572;SDS011;47465;43.094;12.434;2022-10-17T08:21:01;29.35;;;14.55;;
61572;SDS011;47465;43.094;12.434;2022-10-17T08:23:30;22.83;;;11.98;;
61572;SDS011;47465;43.094;12.434;2022-10-17T08:25:57;25.85;;;12.48;;
61572;SDS011;47465;43.094;12.434;2022-10-17T08:28:24;25.48;;;13.38;;
61572;SDS011;47465;43.094;12.434;2022-10-17T08:30:51;21.50;;;13.05;;
61572;SDS011;47465;43.094;12.434;2022-10-17T08:33:17;23.83;;;12.65;;
61572;SDS011;47465;43.094;12.434;2022-10-17T08:35:42;24.00;;;12.23;;
61572;SDS011;47465;43.094;12.434;2022-10-17T08:38:08;23.67;;;12.20;;
61572;SDS011;47465;43.094;12.434;2022-10-17T08:40:34;24.95;;;12.07;;
61572;SDS011;47465;43.094;12.434;2022-10-17T08:43:14;28.88;;;12.73;;
61572;SDS011;47465;43.094;12.434;2022-10-17T08:45:53;23.63;;;13.48;;
61572;SDS011;47465;43.094;12.434;2022-10-17T08:48:24;26.35;;;13.57;;
61572;SDS011;47465;43.094;12.434;2022-10-17T08:50:53;22.77;;;12.68;;
61572;SDS011;47465;43.094;12.434;2022-10-17T08:53:23;24.20;;;13.13;;
61572;SDS011;47465;43.094;12.434;2022-10-17T08:55:53;24.33;;;12.65;;
61572;SDS011;47465;43.094;12.434;2022-10-17T08:58:20;26.42;;;13.10;;
61572;SDS011;47465;43.094;12.434;2022-10-17T09:00:50;25.35;;;11.57;;
61572;SDS011;47465;43.094;12.434;2022-10-17T09:03:29;19.35;;;11.35;;
61572;SDS011;47465;43.094;12.434;2022-10-17T09:06:08;22.60;;;12.20;;
61572;SDS011;47465;43.094;12.434;2022-10-17T09:08:41;25.38;;;12.07;;
61572;SDS011;47465;43.094;12.434;2022-10-17T09:11:19;24.13;;;12.20;;
61572;SDS011;47465;43.094;12.434;2022-10-17T09:14:03;30.08;;;13.05;;
61572;SDS011;47465;43.094;12.434;2022-10-17T09:16:48;24.35;;;12.30;;
61572;SDS011;47465;43.094;12.434;2022-10-17T09:19:22;28.70;;;13.07;;
61572;SDS011;47465;43.094;12.434;2022-10-17T09:21:54;27.73;;;13.18;;
61572;SDS011;47465;43.094;12.434;2022-10-17T09:24:27;29.25;;;14.75;;
61572;SDS011;47465;43.094;12.434;2022-10-17T09:27:02;26.80;;;13.82;;
61572;SDS011;47465;43.094;12.434;2022-10-17T09:29:30;29.67;;;16.23;;
61572;SDS011;47465;43.094;12.434;2022-10-17T09:31:59;32.40;;;16.60;;
61572;SDS011;47465;43.094;12.434;2022-10-17T09:34:28;32.13;;;16.67;;
61572;SDS011;47465;43.094;12.434;2022-10-17T09:36:56;35.13;;;16.70;;
61572;SDS011;47465;43.094;12.434;2022-10-17T09:39:24;34.78;;;16.05;;
61572;SDS011;47465;43.094;12.434;2022-10-17T09:41:52;35.63;;;16.17;;
61572;SDS011;47465;43.094;12.434;2022-10-17T09:44:20;33.38;;;17.00;;
61572;SDS011;47465;43.094;12.434;2022-10-17T09:46:51;31.05;;;17.10;;
61572;SDS011;47465;43.094;12.434;2022-10-17T09:49:27;35.58;;;16.35;;
61572;SDS011;47465;43.094;12.434;2022-10-17T09:51:56;35.60;;;18.13;;
61572;SDS011;47465;43.094;12.434;2022-10-17T09:54:23;35.40;;;17.25;;
61572;SDS011;47465;43.094;12.434;2022-10-17T09:56:55;38.67;;;17.90;;
61572;SDS011;47465;43.094;12.434;2022-10-17T09:59:28;36.67;;;16.58;;
61572;SDS011;47465;43.094;12.434;2022-10-17T10:01:58;36.67;;;16.58;;
61572;SDS011;47465;43.094;12.434;2022-10-17T10:04:34;38.10;;;18.15;;
61572;SDS011;47465;43.094;12.434;2022-10-17T10:07:01;35.47;;;17.10;;
61572;SDS011;47465;43.094;12.434;2022-10-17T10:09:30;37.15;;;18.70;;
61572;SDS011;47465;43.094;12.434;2022-10-17T10:11:58;40.95;;;18.38;;
61572;SDS011;47465;43.094;12.434;2022-10-17T10:14:28;41.13;;;18.45;;
61572;SDS011;47465;43.094;12.434;2022-10-17T10:16:57;42.42;;;20.10;;
61572;SDS011;47465;43.094;12.434;2022-10-17T10:19:27;45.20;;;19.63;;
61572;SDS011;47465;43.094;12.434;2022-10-17T10:21:56;37.20;;;17.60;;
61572;SDS011;47465;43.094;12.434;2022-10-17T10:24:23;37.67;;;17.45;;
61572;SDS011;47465;43.094;12.434;2022-10-17T10:26:51;34.88;;;18.13;;
61572;SDS011;47465;43.094;12.434;2022-10-17T10:29:20;40.65;;;19.63;;
61572;SDS011;47465;43.094;12.434;2022-10-17T10:31:49;33.67;;;18.30;;
61572;SDS011;47465;43.094;12.434;2022-10-17T10:34:18;35.20;;;16.88;;
61572;SDS011;47465;43.094;12.434;2022-10-17T10:36:51;38.45;;;18.98;;
61572;SDS011;47465;43.094;12.434;2022-10-17T10:39:27;33.70;;;18.38;;
61572;SDS011;47465;43.094;12.434;2022-10-17T10:42:03;35.63;;;17.73;;
61572;SDS011;47465;43.094;12.434;2022-10-17T10:44:31;36.25;;;18.38;;
61572;SDS011;47465;43.094;12.434;2022-10-17T10:47:07;31.55;;;16.30;;
61572;SDS011;47465;43.094;12.434;2022-10-17T10:49:40;39.40;;;17.70;;
61572;SDS011;47465;43.094;12.434;2022-10-17T10:52:10;36.45;;;17.65;;
61572;SDS011;47465;43.094;12.434;2022-10-17T10:54:45;33.85;;;16.33;;
61572;SDS011;47465;43.094;12.434;2022-10-17T10:57:18;32.85;;;17.25;;
61572;SDS011;47465;43.094;12.434;2022-10-17T10:59:50;33.42;;;17.17;;
61572;SDS011;47465;43.094;12.434;2022-10-17T11:02:22;31.90;;;15.95;;
61572;SDS011;47465;43.094;12.434;2022-10-17T11:04:51;35.42;;;17.90;;
61572;SDS011;47465;43.094;12.434;2022-10-17T11:07:23;33.13;;;16.88;;
61572;SDS011;47465;43.094;12.434;2022-10-17T11:09:57;28.67;;;14.90;;
61572;SDS011;47465;43.094;12.434;2022-10-17T11:12:31;28.55;;;15.38;;
61572;SDS011;47465;43.094;12.434;2022-10-17T11:15:01;28.38;;;14.90;;
61572;SDS011;47465;43.094;12.434;2022-10-17T11:17:33;29.40;;;14.30;;
61572;SDS011;47465;43.094;12.434;2022-10-17T11:20:13;24.92;;;13.57;;
61572;SDS011;47465;43.094;12.434;2022-10-17T11:22:45;28.30;;;13.70;;
61572;SDS011;47465;43.094;12.434;2022-10-17T11:25:16;26.50;;;13.65;;
61572;SDS011;47465;43.094;12.434;2022-10-17T11:27:49;26.83;;;14.73;;
61572;SDS011;47465;43.094;12.434;2022-10-17T11:30:15;26.30;;;12.93;;
61572;SDS011;47465;43.094;12.434;2022-10-17T11:32:41;25.60;;;12.45;;
61572;SDS011;47465;43.094;12.434;2022-10-17T11:37:42;19.20;;;10.35;;
61572;SDS011;47465;43.094;12.434;2022-10-17T11:40:15;15.40;;;8.70;;
61572;SDS011;47465;43.094;12.434;2022-10-17T11:42:47;13.77;;;8.10;;
61572;SDS011;47465;43.094;12.434;2022-10-17T11:45:19;16.60;;;8.93;;
61572;SDS011;47465;43.094;12.434;2022-10-17T11:47:49;15.10;;;9.23;;
61572;SDS011;47465;43.094;12.434;2022-10-17T11:50:20;19.98;;;10.02;;
61572;SDS011;47465;43.094;12.434;2022-10-17T11:52:50;17.83;;;9.65;;
61572;SDS011;47465;43.094;12.434;2022-10-17T11:55:21;20.67;;;10.10;;
61572;SDS011;47465;43.094;12.434;2022-10-17T11:57:52;17.73;;;9.65;;
61572;SDS011;47465;43.094;12.434;2022-10-17T12:00:33;17.10;;;9.25;;
61572;SDS011;47465;43.094;12.434;2022-10-17T12:03:16;18.40;;;10.75;;
61572;SDS011;47465;43.094;12.434;2022-10-17T12:05:51;14.75;;;8.95;;
61572;SDS011;47465;43.094;12.434;2022-10-17T12:08:24;16.27;;;9.00;;
61572;SDS011;47465;43.094;12.434;2022-10-17T12:10:57;15.20;;;9.27;;
61572;SDS011;47465;43.094;12.434;2022-10-17T12:22:02;15.30;;;8.55;;
61572;SDS011;47465;43.094;12.434;2022-10-17T12:24:32;16.70;;;8.35;;
61572;SDS011;47465;43.094;12.434;2022-10-17T12:29:47;18.80;;;9.00;;
61572;SDS011;47465;43.094;12.434;2022-10-17T12:32:14;15.82;;;9.43;;
61572;SDS011;47465;43.094;12.434;2022-10-17T12:34:49;19.58;;;9.77;;
61572;SDS011;47465;43.094;12.434;2022-10-17T12:37:28;18.00;;;9.70;;
61572;SDS011;47465;43.094;12.434;2022-10-17T12:40:51;19.27;;;9.25;;
61572;SDS011;47465;43.094;12.434;2022-10-17T12:43:36;17.80;;;8.38;;
61572;SDS011;47465;43.094;12.434;2022-10-17T12:46:09;15.20;;;8.85;;
61572;SDS011;47465;43.094;12.434;2022-10-17T12:54:40;20.73;;;10.35;;
61572;SDS011;47465;43.094;12.434;2022-10-17T12:57:12;13.95;;;8.38;;
61572;SDS011;47465;43.094;12.434;2022-10-17T12:59:44;14.73;;;7.95;;
61572;SDS011;47465;43.094;12.434;2022-10-17T13:02:13;13.52;;;7.85;;
61572;SDS011;47465;43.094;12.434;2022-10-17T13:04:44;17.13;;;8.90;;
61572;SDS011;47465;43.094;12.434;2022-10-17T13:07:12;14.82;;;7.47;;
61572;SDS011;47465;43.094;12.434;2022-10-17T13:09:43;14.00;;;8.43;;
61572;SDS011;47465;43.094;12.434;2022-10-17T13:12:10;13.40;;;8.07;;
61572;SDS011;47465;43.094;12.434;2022-10-17T13:14:39;14.02;;;8.35;;
61572;SDS011;47465;43.094;12.434;2022-10-17T13:17:18;15.48;;;8.27;;
61572;SDS011;47465;43.094;12.434;2022-10-17T13:19:46;14.43;;;7.60;;
61572;SDS011;47465;43.094;12.434;2022-10-17T13:22:13;15.00;;;8.30;;
61572;SDS011;47465;43.094;12.434;2022-10-17T13:24:41;16.30;;;8.75;;
61572;SDS011;47465;43.094;12.434;2022-10-17T13:27:20;15.40;;;8.40;;
61572;SDS011;47465;43.094;12.434;2022-10-17T13:29:49;12.45;;;7.47;;
61572;SDS011;47465;43.094;12.434;2022-10-17T13:32:16;15.93;;;7.97;;
61572;SDS011;47465;43.094;12.434;2022-10-17T13:34:41;15.65;;;7.95;;
61572;SDS011;47465;43.094;12.434;2022-10-17T13:37:09;12.20;;;7.53;;
61572;SDS011;47465;43.094;12.434;2022-10-17T13:39:39;15.18;;;8.35;;
61572;SDS011;47465;43.094;12.434;2022-10-17T13:42:13;17.13;;;8.23;;
61572;SDS011;47465;43.094;12.434;2022-10-17T13:44:43;13.77;;;8.40;;
61572;SDS011;47465;43.094;12.434;2022-10-17T13:47:20;15.93;;;8.38;;
61572;SDS011;47465;43.094;12.434;2022-10-17T13:49:47;15.70;;;7.43;;
61572;SDS011;47465;43.094;12.434;2022-10-17T13:52:14;14.32;;;7.47;;
61572;SDS011;47465;43.094;12.434;2022-10-17T13:54:43;14.07;;;7.95;;
61572;SDS011;47465;43.094;12.434;2022-10-17T13:57:16;12.82;;;7.15;;
61572;SDS011;47465;43.094;12.434;2022-10-17T13:59:44;15.70;;;8.13;;
61572;SDS011;47465;43.094;12.434;2022-10-17T14:02:13;13.05;;;7.43;;
61572;SDS011;47465;43.094;12.434;2022-10-17T14:04:42;13.18;;;7.07;;
61572;SDS011;47465;43.094;12.434;2022-10-17T14:07:12;14.32;;;7.55;;
61572;SDS011;47465;43.094;12.434;2022-10-17T14:09:47;12.80;;;7.38;;
61572;SDS011;47465;43.094;12.434;2022-10-17T14:12:13;10.90;;;6.47;;
61572;SDS011;47465;43.094;12.434;2022-10-17T14:14:45;12.35;;;7.10;;
61572;SDS011;47465;43.094;12.434;2022-10-17T14:17:13;13.35;;;7.50;;
61572;SDS011;47465;43.094;12.434;2022-10-17T14:19:39;13.45;;;7.05;;
61572;SDS011;47465;43.094;12.434;2022-10-17T14:22:16;11.95;;;6.88;;
61572;SDS011;47465;43.094;12.434;2022-10-17T14:24:49;14.65;;;7.60;;
61572;SDS011;47465;43.094;12.434;2022-10-17T14:27:27;12.75;;;6.70;;
61572;SDS011;47465;43.094;12.434;2022-10-17T14:29:55;12.05;;;7.53;;
61572;SDS011;47465;43.094;12.434;2022-10-17T14:32:25;12.80;;;7.07;;
61572;SDS011;47465;43.094;12.434;2022-10-17T14:34:52;14.15;;;6.97;;
61572;SDS011;47465;43.094;12.434;2022-10-17T14:37:30;11.43;;;6.28;;
61572;SDS011;47465;43.094;12.434;2022-10-17T14:40:00;10.82;;;6.70;;
61572;SDS011;47465;43.094;12.434;2022-10-17T14:42:28;9.32;;;5.97;;
61572;SDS011;47465;43.094;12.434;2022-10-17T14:44:54;15.30;;;9.85;;